Time;durP1;ratioP1;P1;durP2;ratioP2;P2;SDS_P1;SDS_P2;PMS_P1;PMS_P2;Temp;Humidity;BMP_temperature;BMP_pressure;BME280_temperature;BME280_humidity;BME280_pressure;Samples;Min_cycle;Max_cycle;Signal;HPM_P1;HPM_P2
2021/06/01 00:02:06;;;;;;;1999.90;999.90;;;12.80;99.90;;;;;;5013072;28;20561;-53
2021/06/01 00:04:33;;;;;;;1999.90;999.90;;;12.70;99.90;;;;;;5013182;28;20225;-59
2021/06/01 00:07:00;;;;;;;1999.90;999.90;;;12.70;99.90;;;;;;5013146;28;20163;-50
2021/06/01 00:09:27;;;;;;;1999.90;999.90;;;12.70;99.90;;;;;;5013012;28;20244;-53
2021/06/01 00:11:54;;;;;;;1999.90;999.90;;;12.80;99.90;;;;;;5013106;28;20174;-57
2021/06/01 00:14:21;;;;;;;1999.90;999.90;;;12.80;99.90;;;;;;5013034;28;20195;-52
2021/06/01 00:16:50;;;;;;;1999.90;999.90;;;12.80;99.90;;;;;;5012887;28;20252;-55
2021/06/01 00:19:17;;;;;;;1999.90;999.90;;;12.80;99.90;;;;;;5012949;28;20170;-54
2021/06/01 00:21:45;;;;;;;1999.90;999.90;;;12.80;99.90;;;;;;5011787;28;20228;-52
2021/06/01 00:24:12;;;;;;;1999.90;999.90;;;12.70;99.90;;;;;;5014870;28;20265;-53
2021/06/01 00:26:40;;;;;;;1999.90;999.90;;;12.70;99.90;;;;;;5016937;28;20228;-50
2021/06/01 00:29:07;;;;;;;1999.90;999.90;;;12.70;99.90;;;;;;5016901;28;20522;-52
2021/06/01 00:31:35;;;;;;;1999.90;999.90;;;12.60;99.90;;;;;;5016829;28;20616;-52
2021/06/01 00:34:03;;;;;;;1999.90;999.90;;;12.60;99.90;;;;;;5016810;28;20571;-52
2021/06/01 00:36:30;;;;;;;1999.90;999.90;;;12.60;99.90;;;;;;5016728;28;20166;-55
2021/06/01 00:38:57;;;;;;;1999.90;999.90;;;12.60;99.90;;;;;;5016726;28;20197;-51
2021/06/01 00:41:24;;;;;;;1999.90;999.90;;;12.60;99.90;;;;;;5016682;28;20159;-57
2021/06/01 00:43:50;;;;;;;1999.90;999.90;;;12.60;99.90;;;;;;5016543;28;20206;-50
2021/06/01 00:46:17;;;;;;;1999.90;999.90;;;12.60;99.90;;;;;;5016610;28;20174;-51
2021/06/01 00:48:44;;;;;;;1999.90;999.90;;;12.50;99.90;;;;;;5016602;28;20167;-53
2021/06/01 00:51:12;;;;;;;1999.90;999.90;;;12.50;99.90;;;;;;5016485;28;20163;-51
2021/06/01 00:53:38;;;;;;;1999.90;999.90;;;12.50;99.90;;;;;;5016369;28;20186;-50
2021/06/01 00:56:07;;;;;;;1999.90;999.90;;;12.50;99.90;;;;;;5016358;28;20409;-49
2021/06/01 00:58:35;;;;;;;1999.90;999.90;;;12.50;99.90;;;;;;5016362;28;20206;-57
2021/06/01 01:03:33;;;;;;;1999.90;999.90;;;12.60;99.90;;;;;;5016227;28;20616;-54
2021/06/01 01:06:32;;;;;;;1999.90;999.90;;;12.60;99.90;;;;;;5016150;28;20241;-56
2021/06/01 01:09:08;;;;;;;1999.90;999.90;;;12.60;99.90;;;;;;5016235;28;20162;-50
2021/06/01 01:11:57;;;;;;;1999.90;999.90;;;12.60;99.90;;;;;;5016194;28;20546;-51
2021/06/01 01:14:39;;;;;;;1999.90;999.90;;;12.70;99.90;;;;;;5016082;28;20632;-57
2021/06/01 01:17:22;;;;;;;1999.90;999.90;;;12.70;99.90;;;;;;5015853;28;20214;-52
2021/06/01 01:20:27;;;;;;;1999.90;999.90;;;12.60;99.90;;;;;;5016125;28;20571;-50
2021/06/01 01:22:56;;;;;;;1999.90;999.90;;;12.50;99.90;;;;;;5015514;28;20217;-58
2021/06/01 01:25:29;;;;;;;1999.90;999.90;;;12.30;99.90;;;;;;5015828;28;20174;-50
2021/06/01 01:28:27;;;;;;;1999.90;999.90;;;12.20;99.90;;;;;;5015929;28;20163;-52
2021/06/01 01:30:59;;;;;;;1999.90;999.90;;;12.20;99.90;;;;;;5015859;28;20237;-50
2021/06/01 01:33:32;;;;;;;1999.90;999.90;;;12.10;99.90;;;;;;5015732;28;20217;-49
2021/06/01 01:36:02;;;;;;;1999.90;999.90;;;12.10;99.90;;;;;;5015244;28;20158;-52
2021/06/01 01:38:30;;;;;;;1999.90;999.90;;;12.00;99.90;;;;;;5015621;28;20174;-59
2021/06/01 01:41:03;;;;;;;1999.90;999.90;;;12.00;99.90;;;;;;5015602;28;20162;-52
2021/06/01 01:43:33;;;;;;;1999.90;999.90;;;12.00;99.90;;;;;;5015528;28;20194;-52
2021/06/01 01:46:09;;;;;;;1999.90;999.90;;;12.00;99.90;;;;;;5015410;28;20710;-50
2021/06/01 01:51:24;;;;;;;1999.90;999.90;;;11.90;99.90;;;;;;5015827;28;20162;-59
2021/06/01 01:53:57;;;;;;;1999.90;999.90;;;12.00;99.90;;;;;;5015369;28;20171;-51
2021/06/01 01:56:32;;;;;;;1999.90;999.90;;;11.90;99.90;;;;;;5015419;28;20170;-50
2021/06/01 01:59:00;;;;;;;1999.90;999.90;;;11.90;99.90;;;;;;5015234;28;20158;-49
2021/06/01 02:01:31;;;;;;;1999.90;999.90;;;11.90;99.90;;;;;;5015242;28;20179;-50
2021/06/01 02:03:59;;;;;;;1999.90;999.90;;;11.80;99.90;;;;;;5015176;28;20171;-49
2021/06/01 02:06:26;;;;;;;1999.90;999.90;;;11.80;99.90;;;;;;5015108;28;20534;-50
2021/06/01 02:08:53;;;;;;;1999.90;999.90;;;11.70;99.90;;;;;;5015181;28;20629;-53
2021/06/01 02:11:21;;;;;;;1999.90;999.90;;;11.80;99.90;;;;;;5015090;28;20166;-53
2021/06/01 02:13:54;;;;;;;1999.90;999.90;;;11.70;99.90;;;;;;5015203;28;20182;-52
2021/06/01 02:16:22;;;;;;;1999.90;999.90;;;11.70;99.90;;;;;;5014868;28;20159;-60
2021/06/01 02:18:50;;;;;;;1999.90;999.90;;;11.70;99.90;;;;;;5014684;28;20222;-60
2021/06/01 02:21:35;;;;;;;1999.90;999.90;;;11.70;99.90;;;;;;5014664;28;20218;-50
2021/06/01 02:24:21;;;;;;;1999.90;999.90;;;11.60;99.90;;;;;;5014730;28;20207;-50
2021/06/01 02:27:13;;;;;;;1999.90;999.90;;;11.60;99.90;;;;;;5014739;28;20200;-50
2021/06/01 02:30:01;;;;;;;1999.90;999.90;;;11.50;99.90;;;;;;5009114;28;20194;-60
2021/06/01 02:32:46;;;;;;;1999.90;999.90;;;11.50;99.90;;;;;;5014580;28;20670;-51
2021/06/01 02:35:17;;;;;;;1999.90;999.90;;;11.50;99.90;;;;;;5014448;28;20159;-50
2021/06/01 02:37:46;;;;;;;1999.90;999.90;;;11.50;99.90;;;;;;5014834;28;20249;-58
2021/06/01 02:40:15;;;;;;;1999.90;999.90;;;11.50;99.90;;;;;;5014465;28;20617;-51
2021/06/01 02:42:44;;;;;;;1999.90;999.90;;;11.60;99.90;;;;;;5014362;28;20264;-51
2021/06/01 02:45:14;;;;;;;1999.90;999.90;;;11.70;99.90;;;;;;5014323;28;20201;-59
2021/06/01 02:47:41;;;;;;;1999.90;999.90;;;11.60;99.90;;;;;;5013510;28;20171;-51
2021/06/01 02:50:15;;;;;;;1999.90;999.90;;;11.60;99.90;;;;;;5014287;28;20648;-51
2021/06/01 02:52:43;;;;;;;1999.90;999.90;;;11.50;99.90;;;;;;5014302;28;20242;-51
2021/06/01 02:55:13;;;;;;;1999.90;999.90;;;11.50;99.90;;;;;;5014142;28;20578;-50
2021/06/01 02:57:41;;;;;;;1999.90;999.90;;;11.60;99.90;;;;;;5014120;28;20579;-50
2021/06/01 03:00:11;;;;;;;1999.90;999.90;;;11.60;99.90;;;;;;5014106;28;20166;-57
2021/06/01 03:02:38;;;;;;;1999.90;999.90;;;11.70;99.90;;;;;;5014109;28;20201;-54
2021/06/01 03:05:06;;;;;;;1999.90;999.90;;;11.70;99.90;;;;;;5013933;28;20166;-51
2021/06/01 03:07:36;;;;;;;1999.90;999.90;;;11.70;99.90;;;;;;5014022;28;20194;-51
2021/06/01 03:10:06;;;;;;;1999.90;999.90;;;11.80;99.90;;;;;;5013972;28;20224;-57
2021/06/01 03:15:01;;;;;;;1999.90;999.90;;;11.90;99.90;;;;;;5013794;28;20253;-50
2021/06/01 03:17:28;;;;;;;1999.90;999.90;;;11.90;99.90;;;;;;5013775;28;20249;-59
2021/06/01 03:19:54;;;;;;;1999.90;999.90;;;12.00;99.90;;;;;;5013787;28;20249;-55
2021/06/01 03:22:21;;;;;;;1999.90;999.90;;;12.00;99.90;;;;;;5013635;28;20198;-56
2021/06/01 03:24:48;;;;;;;1999.90;999.90;;;12.10;99.90;;;;;;5013692;28;20170;-60
2021/06/01 03:27:15;;;;;;;1999.90;999.90;;;12.10;99.90;;;;;;5013626;28;20649;-52
2021/06/01 03:29:42;;;;;;;1999.90;999.90;;;12.10;99.90;;;;;;5013606;28;20225;-56
2021/06/01 03:32:09;;;;;;;1999.90;999.90;;;12.10;99.90;;;;;;5013610;28;20185;-55
2021/06/01 03:34:36;;;;;;;1999.90;999.90;;;12.10;99.90;;;;;;5013533;28;20166;-53
2021/06/01 03:37:03;;;;;;;1999.90;999.90;;;12.10;99.90;;;;;;5013546;28;20171;-58
2021/06/01 03:39:31;;;;;;;1999.90;999.90;;;12.10;99.90;;;;;;5013600;28;20182;-57
2021/06/01 03:41:59;;;;;;;1999.90;999.90;;;12.00;99.90;;;;;;5013402;28;20275;-58
2021/06/01 03:44:25;;;;;;;1999.90;999.90;;;12.10;99.90;;;;;;5013428;28;20216;-51
2021/06/01 03:46:52;;;;;;;1999.90;999.90;;;12.00;99.90;;;;;;5013354;28;20224;-53
2021/06/01 03:49:19;;;;;;;1999.90;999.90;;;12.00;99.90;;;;;;5013353;28;20171;-57
2021/06/01 03:51:46;;;;;;;1999.90;999.90;;;12.00;99.90;;;;;;5013224;28;20236;-50
2021/06/01 03:54:13;;;;;;;1999.90;999.90;;;12.00;99.90;;;;;;5013301;28;20676;-58
2021/06/01 03:56:40;;;;;;;1999.90;999.90;;;12.00;99.90;;;;;;5013188;28;20178;-56
2021/06/01 03:59:07;;;;;;;1999.90;999.90;;;12.00;99.90;;;;;;5013041;28;20174;-57
2021/06/01 04:01:33;;;;;;;1999.90;999.90;;;12.10;99.90;;;;;;5013116;28;20182;-55
2021/06/01 04:04:00;;;;;;;1999.90;999.90;;;12.00;99.90;;;;;;5013241;28;20175;-53
2021/06/01 04:06:27;;;;;;;1999.90;999.90;;;12.10;99.90;;;;;;5013162;28;20162;-59
2021/06/01 04:08:54;;;;;;;1999.90;999.90;;;12.10;99.90;;;;;;5013096;28;20201;-60
2021/06/01 04:11:21;;;;;;;1999.90;999.90;;;12.10;99.90;;;;;;5013108;28;20163;-60
2021/06/01 04:13:47;;;;;;;1999.90;999.90;;;12.10;99.90;;;;;;5013092;28;20174;-51
2021/06/01 04:16:14;;;;;;;1999.90;999.90;;;12.20;99.90;;;;;;5013052;28;20253;-59
2021/06/01 04:18:41;;;;;;;1999.90;999.90;;;12.10;99.90;;;;;;5012895;28;20748;-53
2021/06/01 04:21:08;;;;;;;1999.90;999.90;;;12.10;99.90;;;;;;5012898;28;20177;-56
2021/06/01 04:23:35;;;;;;;1999.90;999.90;;;12.20;99.90;;;;;;5012982;28;20630;-56
2021/06/01 04:26:02;;;;;;;1999.90;999.90;;;12.10;99.90;;;;;;5013082;28;20201;-57
2021/06/01 04:28:29;;;;;;;1999.90;999.90;;;12.10;99.90;;;;;;5012862;28;20174;-59
2021/06/01 04:30:56;;;;;;;1999.90;999.90;;;12.00;99.90;;;;;;5012929;28;20179;-52
2021/06/01 04:33:22;;;;;;;1999.90;999.90;;;12.00;99.90;;;;;;5012904;28;20224;-57
2021/06/01 04:35:49;;;;;;;1999.90;999.90;;;12.00;99.90;;;;;;5012845;28;20175;-53
2021/06/01 04:38:16;;;;;;;1999.90;999.90;;;12.10;99.90;;;;;;5012829;28;20170;-52
2021/06/01 04:40:43;;;;;;;1999.90;999.90;;;12.00;99.90;;;;;;5012733;28;20170;-50
2021/06/01 04:43:10;;;;;;;1999.90;999.90;;;11.90;99.90;;;;;;5012547;28;20229;-59
2021/06/01 04:45:37;;;;;;;1999.90;999.90;;;12.00;99.90;;;;;;5012820;28;20171;-53
2021/06/01 04:48:04;;;;;;;1999.90;999.90;;;12.10;99.90;;;;;;5012849;28;20212;-53
2021/06/01 04:50:31;;;;;;;1999.90;999.90;;;12.00;99.90;;;;;;5012778;28;20214;-50
2021/06/01 04:52:58;;;;;;;1999.90;999.90;;;12.10;99.90;;;;;;5012724;28;20577;-59
2021/06/01 04:55:24;;;;;;;1999.90;999.90;;;12.10;99.90;;;;;;5012669;28;20174;-53
2021/06/01 04:57:51;;;;;;;1999.90;999.90;;;12.10;99.90;;;;;;5012644;28;20541;-51
2021/06/01 05:00:19;;;;;;;1999.90;999.90;;;12.10;99.90;;;;;;5012634;28;20174;-52
2021/06/01 05:02:46;;;;;;;1999.90;999.90;;;12.20;99.90;;;;;;5012546;28;20579;-58
2021/06/01 05:05:13;;;;;;;1999.90;999.90;;;12.10;99.90;;;;;;5012591;28;20199;-58
2021/06/01 05:07:40;;;;;;;1999.90;999.90;;;12.10;99.90;;;;;;5012507;28;20173;-59
2021/06/01 05:10:07;;;;;;;1999.90;999.90;;;12.10;99.90;;;;;;5014088;28;20614;-50
2021/06/01 05:12:34;;;;;;;1999.90;999.90;;;12.20;99.90;;;;;;5016162;28;20174;-55
2021/06/01 05:15:01;;;;;;;1999.90;999.90;;;12.10;99.90;;;;;;5015927;28;20644;-54
2021/06/01 05:17:29;;;;;;;1999.90;999.90;;;12.10;99.90;;;;;;5015724;28;20233;-54
2021/06/01 05:19:55;;;;;;;1999.90;999.90;;;12.20;99.90;;;;;;5015928;28;20173;-57
2021/06/01 05:22:22;;;;;;;1999.90;999.90;;;12.10;99.90;;;;;;5015603;28;20210;-54
2021/06/01 05:24:49;;;;;;;1999.90;999.90;;;12.10;99.90;;;;;;5015688;28;20166;-55
2021/06/01 05:27:16;;;;;;;1999.90;999.90;;;12.10;99.90;;;;;;5015697;28;20182;-53
2021/06/01 05:29:48;;;;;;;1999.90;999.90;;;12.10;99.90;;;;;;5015820;28;20570;-52
2021/06/01 05:35:02;;;;;;;1999.90;999.90;;;12.10;99.90;;;;;;5015417;28;20159;-50
2021/06/01 05:37:34;;;;;;;1999.90;999.90;;;12.10;99.90;;;;;;5015435;28;20191;-57
2021/06/01 05:40:01;;;;;;;1999.90;999.90;;;12.10;99.90;;;;;;5015293;28;20161;-51
2021/06/01 05:42:27;;;;;;;1999.90;999.90;;;12.10;99.90;;;;;;5015057;28;20226;-52
2021/06/01 05:44:54;;;;;;;1999.90;999.90;;;12.20;99.90;;;;;;5015171;28;20522;-59
2021/06/01 05:47:21;;;;;;;1999.90;999.90;;;12.10;99.90;;;;;;5015238;28;20221;-52
2021/06/01 05:49:48;;;;;;;1999.90;999.90;;;12.10;99.90;;;;;;5015282;28;20614;-49
2021/06/01 05:52:15;;;;;;;1999.90;999.90;;;12.00;99.90;;;;;;5015029;28;20201;-55
2021/06/01 05:54:41;;;;;;;1999.90;999.90;;;12.10;99.90;;;;;;5015178;28;20510;-53
2021/06/01 05:57:09;;;;;;;1999.90;999.90;;;12.00;99.90;;;;;;5015091;28;20549;-52
2021/06/01 05:59:35;;;;;;;1999.90;999.90;;;12.10;99.90;;;;;;5015027;28;20178;-59
2021/06/01 06:02:02;;;;;;;1999.90;999.90;;;12.10;99.90;;;;;;5014740;28;20616;-59
2021/06/01 06:04:29;;;;;;;1999.90;999.90;;;12.20;99.90;;;;;;5014153;28;20178;-55
2021/06/01 06:06:56;;;;;;;1999.90;999.90;;;12.20;99.90;;;;;;5013459;28;20175;-45
2021/06/01 06:09:23;;;;;;;1999.90;999.90;;;12.10;99.90;;;;;;5014080;28;20162;-49
2021/06/01 06:11:49;;;;;;;1999.90;999.90;;;12.10;99.90;;;;;;5014251;28;20171;-49
2021/06/01 06:14:16;;;;;;;1999.90;999.90;;;12.10;99.90;;;;;;5011030;28;20228;-45
2021/06/01 06:16:50;;;;;;;1999.90;999.90;;;12.00;99.90;;;;;;5014585;28;20667;-56
2021/06/01 06:19:17;;;;;;;1999.90;999.90;;;12.00;99.90;;;;;;5014378;28;20197;-50
2021/06/01 06:21:44;;;;;;;1999.90;999.90;;;12.10;99.90;;;;;;5013996;28;20174;-59
2021/06/01 06:24:11;;;;;;;1999.90;999.90;;;12.00;99.90;;;;;;5014360;28;20587;-54
2021/06/01 06:26:37;;;;;;;1999.90;999.90;;;12.10;99.90;;;;;;5014188;28;20499;-46
2021/06/01 06:29:04;;;;;;;1999.90;999.90;;;12.20;99.90;;;;;;5014186;28;20194;-52
2021/06/01 06:31:31;;;;;;;1999.90;999.90;;;12.20;99.90;;;;;;5014113;28;20174;-56
2021/06/01 06:33:58;;;;;;;1999.90;999.90;;;12.20;99.90;;;;;;5014158;28;20167;-50
2021/06/01 06:36:25;;;;;;;1999.90;999.90;;;12.20;99.90;;;;;;5013953;28;20174;-48
2021/06/01 06:38:52;;;;;;;1999.90;999.90;;;12.30;99.90;;;;;;5013981;28;20170;-58
2021/06/01 06:41:18;;;;;;;1999.90;999.90;;;12.40;99.90;;;;;;5013928;28;20167;-56
2021/06/01 06:43:49;;;;;;;1999.90;999.90;;;12.60;99.90;;;;;;5013984;28;20217;-53
2021/06/01 06:46:28;;;;;;;1999.90;999.90;;;12.70;99.90;;;;;;5013925;28;20163;-51
2021/06/01 06:48:57;;;;;;;1999.90;999.90;;;12.70;99.90;;;;;;5013330;28;20158;-57
2021/06/01 06:51:26;;;;;;;1999.90;999.90;;;12.70;99.90;;;;;;5013599;28;20190;-59
2021/06/01 06:53:56;;;;;;;1999.90;999.90;;;12.90;99.90;;;;;;5013968;28;20269;-53
2021/06/01 06:56:28;;;;;;;1999.90;999.90;;;13.20;99.90;;;;;;5013383;28;20165;-57
2021/06/01 06:58:57;;;;;;;1999.90;999.90;;;13.20;99.90;;;;;;5013571;28;20636;-55
2021/06/01 07:01:24;;;;;;;1999.90;999.90;;;13.40;99.90;;;;;;5013406;28;20633;-50
2021/06/01 07:03:53;;;;;;;1999.90;999.90;;;13.40;99.90;;;;;;5013029;28;20202;-49
2021/06/01 07:06:22;;;;;;;1999.90;999.90;;;13.40;99.90;;;;;;5013317;28;20644;-57
2021/06/01 07:08:50;;;;;;;1999.90;999.90;;;13.40;99.90;;;;;;5013405;28;20178;-51
2021/06/01 07:11:17;;;;;;;1999.90;999.90;;;13.40;99.90;;;;;;5013634;28;20178;-52
2021/06/01 07:13:44;;;;;;;1999.90;999.90;;;13.40;99.90;;;;;;5013356;28;20167;-51
2021/06/01 07:16:11;;;;;;;1999.90;999.90;;;13.40;99.90;;;;;;5011816;28;20171;-51
2021/06/01 07:18:40;;;;;;;1999.90;999.90;;;13.50;99.90;;;;;;5012890;28;20225;-51
2021/06/01 07:21:08;;;;;;;1999.90;999.90;;;13.90;99.90;;;;;;5013109;28;20244;-48
2021/06/01 07:23:36;;;;;;;1999.90;999.90;;;13.90;99.90;;;;;;5013158;28;20213;-46
2021/06/01 07:26:03;;;;;;;1999.90;999.90;;;13.90;99.90;;;;;;5013011;28;20166;-50
2021/06/01 07:28:30;;;;;;;1999.90;999.90;;;14.00;99.90;;;;;;5012910;28;20632;-52
2021/06/01 07:31:00;;;;;;;1999.90;999.90;;;13.90;99.90;;;;;;5012968;28;20167;-60
2021/06/01 07:33:27;;;;;;;1999.90;999.90;;;13.80;99.90;;;;;;5013204;28;20625;-54
2021/06/01 07:35:54;;;;;;;1999.90;999.90;;;13.70;99.90;;;;;;5012773;28;20181;-52
2021/06/01 07:38:21;;;;;;;1999.90;999.90;;;13.70;99.90;;;;;;5012882;28;20256;-51
2021/06/01 07:40:47;;;;;;;1999.90;999.90;;;13.50;99.90;;;;;;5012964;28;20245;-54
2021/06/01 07:43:14;;;;;;;1999.90;999.90;;;13.40;99.90;;;;;;5012844;28;20225;-57
2021/06/01 07:45:41;;;;;;;1999.90;999.90;;;13.50;99.90;;;;;;5012596;28;20171;-57
2021/06/01 07:48:08;;;;;;;1999.90;999.90;;;13.40;99.90;;;;;;5012766;28;20234;-50
2021/06/01 07:50:35;;;;;;;1999.90;999.90;;;13.50;99.90;;;;;;5012695;28;20177;-50
2021/06/01 07:53:02;;;;;;;1999.90;999.90;;;13.50;99.90;;;;;;5012796;28;20194;-53
2021/06/01 07:55:29;;;;;;;1999.90;999.90;;;13.40;99.90;;;;;;5012873;28;20178;-58
2021/06/01 07:57:55;;;;;;;1999.90;999.90;;;13.30;99.90;;;;;;5012849;28;20245;-42
2021/06/01 08:00:23;;;;;;;1999.90;999.90;;;13.30;99.90;;;;;;5012852;28;20528;-50
2021/06/01 08:02:50;;;;;;;1999.90;999.90;;;13.60;99.90;;;;;;5012450;28;20608;-48
2021/06/01 08:05:19;;;;;;;1999.90;999.90;;;14.30;99.90;;;;;;5012714;28;20174;-55
2021/06/01 08:07:47;;;;;;;1999.90;999.90;;;15.10;99.90;;;;;;5012509;28;20181;-49
2021/06/01 08:10:18;;;;;;;1999.90;999.90;;;15.10;99.90;;;;;;5012466;28;20584;-46
2021/06/01 08:12:46;;;;;;;1999.90;999.90;;;14.80;99.90;;;;;;5012696;28;20513;-61
2021/06/01 08:15:13;;;;;;;1999.90;999.90;;;14.70;99.90;;;;;;5012466;28;20686;-59
2021/06/01 08:17:40;;;;;;;1999.90;999.90;;;14.60;99.90;;;;;;5012302;28;20218;-47
2021/06/01 08:20:14;;;;;;;1999.90;999.90;;;14.60;99.90;;;;;;5012571;28;20182;-58
2021/06/01 08:22:43;;;;;;;1999.90;999.90;;;14.50;99.90;;;;;;5012366;28;20199;-59
2021/06/01 08:25:11;;;;;;;1999.90;999.90;;;14.10;99.90;;;;;;5012528;28;20658;-59
2021/06/01 08:27:38;;;;;;;1999.90;999.90;;;14.00;99.90;;;;;;5012391;28;20621;-59
2021/06/01 08:30:06;;;;;;;1999.90;999.90;;;14.10;99.90;;;;;;5012292;28;20167;-59
2021/06/01 08:32:34;;;;;;;1999.90;999.90;;;14.30;99.90;;;;;;5012220;28;20201;-59
2021/06/01 08:35:01;;;;;;;1999.90;999.90;;;14.50;99.90;;;;;;5012324;28;20174;-60
2021/06/01 08:37:27;;;;;;;1999.90;999.90;;;14.50;99.90;;;;;;5012392;28;20194;-60
2021/06/01 08:39:54;;;;;;;1999.90;999.90;;;14.30;99.90;;;;;;5012187;28;20175;-60
2021/06/01 08:42:22;;;;;;;1999.90;999.90;;;14.20;99.90;;;;;;5012069;28;20194;-50
2021/06/01 08:44:50;;;;;;;1999.90;999.90;;;14.10;99.90;;;;;;5013264;28;20762;-49
2021/06/01 08:47:21;;;;;;;1999.90;999.90;;;14.90;99.90;;;;;;5016024;28;20178;-58
2021/06/01 08:49:49;;;;;;;1999.90;999.90;;;15.00;99.90;;;;;;5016064;28;20177;-59
2021/06/01 08:52:16;;;;;;;1999.90;999.90;;;14.60;99.90;;;;;;5016267;28;20253;-57
2021/06/01 08:54:46;;;;;;;1999.90;999.90;;;14.50;99.90;;;;;;5015977;28;20167;-56
2021/06/01 08:57:13;;;;;;;1999.90;999.90;;;14.70;99.90;;;;;;5016055;28;20167;-53
2021/06/01 08:59:40;;;;;;;1999.90;999.90;;;14.90;99.90;;;;;;5016112;28;20178;-52
2021/06/01 09:02:07;;;;;;;1999.90;999.90;;;14.80;99.90;;;;;;5015361;28;20199;-54
2021/06/01 09:04:59;;;;;;;1999.90;999.90;;;14.80;99.90;;;;;;5015949;28;20170;-57
2021/06/01 09:07:44;;;;;;;1999.90;999.90;;;14.90;99.90;;;;;;5015865;28;20202;-57
2021/06/01 09:10:48;;;;;;;1999.90;999.90;;;14.90;99.90;;;;;;5015673;28;20163;-55
2021/06/01 09:21:45;;;;;;;1999.90;999.90;;;16.00;99.90;;;;;;5015452;28;20250;-49
2021/06/01 09:24:13;;;;;;;1999.90;999.90;;;16.30;99.90;;;;;;5015297;28;20198;-57
2021/06/01 09:29:19;;;;;;;1999.90;999.90;;;16.60;99.90;;;;;;5015312;28;20213;-49
2021/06/01 09:32:04;;;;;;;1999.90;999.90;;;16.60;99.90;;;;;;5015311;28;20584;-52
2021/06/01 09:34:45;;;;;;;1999.90;999.90;;;16.80;99.90;;;;;;5015456;28;20163;-47
2021/06/01 09:37:18;;;;;;;1999.90;999.90;;;16.80;99.90;;;;;;5014979;28;20537;-52
2021/06/01 09:39:45;;;;;;;1999.90;999.90;;;16.90;99.90;;;;;;5015285;28;20177;-49
2021/06/01 09:42:29;;;;;;;1999.90;999.90;;;17.00;99.90;;;;;;5014962;28;20198;-55
2021/06/01 09:45:27;;;;;;;1999.90;999.90;;;17.00;99.90;;;;;;5015246;28;20621;-54
2021/06/01 09:47:59;;;;;;;1999.90;999.90;;;17.10;99.90;;;;;;5006671;28;20193;-55
2021/06/01 09:50:31;;;;;;;1999.90;999.90;;;17.10;99.90;;;;;;5014849;28;20198;-51
2021/06/01 09:53:02;;;;;;;1999.90;999.90;;;17.10;99.90;;;;;;5015038;28;20610;-59
2021/06/01 09:55:34;;;;;;;1999.90;999.90;;;17.10;99.90;;;;;;5014867;28;20671;-55
2021/06/01 09:58:04;;;;;;;1999.90;999.90;;;17.10;99.90;;;;;;5014725;28;20564;-60
2021/06/01 10:00:32;;;;;;;1999.90;999.90;;;16.80;99.90;;;;;;5014630;28;20305;-57
2021/06/01 10:03:04;;;;;;;1999.90;999.90;;;17.20;99.90;;;;;;5014433;28;20561;-60
2021/06/01 10:05:33;;;;;;;1999.90;999.90;;;17.20;99.90;;;;;;5014696;28;20159;-61
2021/06/01 10:08:14;;;;;;;1999.90;999.90;;;17.30;99.90;;;;;;5014633;28;20703;-62
2021/06/01 10:10:42;;;;;;;1999.90;999.90;;;17.40;99.90;;;;;;5014457;28;20205;-55
2021/06/01 10:13:10;;;;;;;1999.90;999.90;;;17.40;99.90;;;;;;5014536;28;20538;-61
2021/06/01 10:15:38;;;;;;;1999.90;999.90;;;17.50;99.90;;;;;;5014225;28;20274;-62
2021/06/01 10:18:08;;;;;;;1999.90;999.90;;;17.30;99.90;;;;;;5014123;28;20241;-62
2021/06/01 10:20:37;;;;;;;1999.90;999.90;;;17.20;99.90;;;;;;5014278;28;20185;-61
2021/06/01 10:23:05;;;;;;;1999.90;999.90;;;17.80;99.90;;;;;;5014133;28;20213;-61
2021/06/01 10:25:33;;;;;;;1999.90;999.90;;;17.90;99.90;;;;;;5014453;28;20511;-54
2021/06/01 10:28:03;;;;;;;1999.90;999.90;;;18.10;99.90;;;;;;5014283;28;20208;-60
2021/06/01 10:30:32;;;;;;;1999.90;999.90;;;18.10;99.90;;;;;;5014357;28;20668;-60
2021/06/01 10:33:10;;;;;;;1999.90;999.90;;;18.30;99.90;;;;;;5014370;28;20641;-60
2021/06/01 10:35:42;;;;;;;1999.90;999.90;;;18.30;99.90;;;;;;5014075;28;20166;-59
2021/06/01 10:44:27;;;;;;;1999.90;999.90;;;18.10;99.90;;;;;;5013888;28;20653;-60
2021/06/01 10:52:11;;;;;;;1999.90;999.90;;;17.80;99.90;;;;;;5014034;28;20220;-62
2021/06/01 10:57:09;;;;;;;1999.90;999.90;;;17.90;99.90;;;;;;5013674;28;20177;-61
2021/06/01 11:02:16;;;;;;;1999.90;999.90;;;18.20;99.90;;;;;;5013573;28;20281;-61
2021/06/01 11:05:07;;;;;;;1999.90;999.90;;;18.50;99.90;;;;;;5013289;28;20182;-61
2021/06/01 11:07:52;;;;;;;1999.90;999.90;;;18.40;99.90;;;;;;5012971;28;20170;-57
2021/06/01 11:10:47;;;;;;;1999.90;999.90;;;18.70;99.90;;;;;;5013579;28;20178;-51
2021/06/01 11:13:23;;;;;;;1999.90;999.90;;;18.80;99.90;;;;;;5013651;28;20508;-62
2021/06/01 11:15:58;;;;;;;1999.90;999.90;;;18.80;99.90;;;;;;5013268;28;20543;-62
2021/06/01 11:18:39;;;;;;;1999.90;999.90;;;19.00;99.90;;;;;;5013266;28;20275;-61
2021/06/01 11:21:35;;;;;;;1999.90;999.90;;;19.30;99.90;;;;;;5013357;28;20628;-61
2021/06/01 11:35:28;;;;;;;1999.90;999.90;;;19.50;99.90;;;;;;5013128;28;20166;-63
2021/06/01 11:40:38;;;;;;;1999.90;999.90;;;19.40;99.90;;;;;;5012882;28;20162;-55
2021/06/01 11:43:07;;;;;;;1999.90;999.90;;;19.40;99.90;;;;;;5012789;28;20571;-57
2021/06/01 11:51:16;;;;;;;1999.90;999.90;;;19.40;99.90;;;;;;5012738;28;20167;-59
2021/06/01 11:53:52;;;;;;;1999.90;999.90;;;19.50;99.90;;;;;;5012682;28;20180;-63
2021/06/01 11:57:26;;;;;;;1999.90;999.90;;;19.30;99.90;;;;;;5012695;28;20175;-60
2021/06/01 12:02:22;;;;;;;1999.90;999.90;;;19.20;99.90;;;;;;5013101;28;20181;-58
2021/06/01 12:13:45;;;;;;;1999.90;999.90;;;19.10;99.90;;;;;;5012996;28;20165;-55
2021/06/01 12:18:49;;;;;;;1999.90;999.90;;;19.70;99.90;;;;;;5013357;28;20309;-61
2021/06/01 12:21:22;;;;;;;1999.90;999.90;;;19.70;99.90;;;;;;5016516;28;20208;-51
2021/06/01 12:24:08;;;;;;;1999.90;999.90;;;19.50;99.90;;;;;;5016351;28;20237;-56
2021/06/01 12:32:13;;;;;;;1999.90;999.90;;;19.80;99.90;;;;;;5016344;28;20644;-43
2021/06/01 12:46:22;;;;;;;1999.90;999.90;;;19.70;99.90;;;;;;4993611;28;20557;-60
2021/06/01 13:19:12;;;;;;;1999.90;999.90;;;19.20;99.90;;;;;;4974835;28;20184;-60
2021/06/01 13:20:37;;;;;;;1999.90;999.90;;;19.30;99.90;;;;;;5016322;28;20165;-62
2021/06/01 13:46:07;;;;;;;1999.90;999.90;;;18.20;99.90;;;;;;5016901;28;20175;-60
2021/06/01 13:48:48;;;;;;;1999.90;999.90;;;18.20;99.90;;;;;;5015084;28;20167;-61
2021/06/01 13:56:35;;;;;;;1999.90;999.90;;;18.30;99.90;;;;;;5015193;28;20177;-61
2021/06/01 14:19:52;;;;;;;1999.90;999.90;;;18.50;99.90;;;;;;5131355;28;20612;-60
2021/06/01 14:27:50;;;;;;;1999.90;999.90;;;18.50;99.90;;;;;;5130793;27;20210;-60
2021/06/01 14:30:54;;;;;;;1999.90;999.90;;;18.40;99.90;;;;;;5130944;28;20166;-60
2021/06/01 14:36:22;;;;;;;1999.90;999.90;;;18.30;99.90;;;;;;5130828;28;20212;-60
2021/06/01 14:55:52;;;;;;;1999.90;999.90;;;18.30;98.70;;;;;;5129755;28;20165;-60
2021/06/01 15:09:58;;;;;;;1999.90;999.90;;;18.30;99.90;;;;;;5130007;28;20162;-59
2021/06/01 15:23:48;;;;;;;1999.90;999.90;;;18.00;99.90;;;;;;5115886;28;20512;-61
2021/06/01 15:28:50;;;;;;;1999.90;999.90;;;17.70;99.90;;;;;;5116304;28;20162;-58
2021/06/01 15:31:43;;;;;;;1999.90;999.90;;;17.60;99.90;;;;;;5115771;28;20609;-58
2021/06/01 15:48:42;;;;;;;1999.90;999.90;;;16.90;99.90;;;;;;5115799;28;20174;-58
2021/06/01 15:54:32;;;;;;;1999.90;999.90;;;16.60;99.90;;;;;;5115470;28;20163;-58
2021/06/01 16:14:42;;;;;;;1999.90;999.90;;;15.80;99.90;;;;;;5052322;28;20181;-59
2021/06/01 16:22:55;;;;;;;1999.90;999.90;;;15.60;99.90;;;;;;5114992;28;20708;-58
2021/06/01 16:42:23;;;;;;;1999.90;999.90;;;15.00;99.90;;;;;;5114540;28;20282;-58
2021/06/01 17:04:53;;;;;;;1999.90;999.90;;;14.50;99.90;;;;;;5011807;28;20259;-56
2021/06/01 17:08:20;;;;;;;1999.90;999.90;;;14.40;99.90;;;;;;5011563;28;20240;-58
2021/06/01 17:13:12;;;;;;;1999.90;999.90;;;14.40;99.90;;;;;;5114086;28;20192;-55
2021/06/01 17:15:40;;;;;;;1999.90;999.90;;;14.30;99.90;;;;;;5113808;28;20166;-51